createdAt,value
2023-11-15T00:04:45.769Z,21.64
2023-11-15T00:14:47.856Z,21.64
2023-11-15T00:24:49.588Z,21.60
2023-11-15T00:34:51.686Z,21.60
2023-11-15T00:44:53.736Z,21.62
2023-11-15T00:54:56.100Z,21.60
2023-11-15T01:04:58.764Z,21.60
2023-11-15T01:15:00.670Z,21.60
2023-11-15T01:25:02.400Z,21.59
2023-11-15T01:35:06.752Z,21.58
2023-11-15T01:45:10.250Z,21.55
2023-11-15T01:55:17.888Z,21.57
2023-11-15T02:05:19.898Z,21.55
2023-11-15T02:15:22.793Z,21.56
2023-11-15T02:25:24.908Z,21.55
2023-11-15T02:35:26.790Z,21.55
2023-11-15T02:45:28.568Z,21.55
2023-11-15T02:55:30.604Z,21.51
2023-11-15T03:05:32.545Z,21.50
2023-11-15T03:15:34.639Z,21.48
2023-11-15T03:25:37.198Z,21.51
2023-11-15T03:35:39.222Z,21.52
2023-11-15T03:45:41.106Z,21.51
2023-11-15T03:55:45.417Z,21.51
2023-11-15T04:05:48.846Z,21.49
2023-11-15T04:15:51.329Z,21.49
2023-11-15T04:25:53.139Z,21.47
2023-11-15T04:35:54.925Z,21.47
2023-11-15T04:45:56.920Z,21.47
2023-11-15T04:55:59.234Z,21.45
2023-11-15T05:06:01.239Z,21.47
2023-11-15T05:16:05.411Z,21.45
2023-11-15T05:26:10.565Z,21.46
2023-11-15T05:36:12.335Z,21.47
2023-11-15T05:46:14.247Z,21.48
2023-11-15T05:56:17.403Z,21.49
2023-11-15T06:06:19.334Z,21.50
2023-11-15T06:16:21.122Z,21.52
2023-11-15T06:26:23.276Z,21.53
2023-11-15T06:36:25.362Z,21.59
2023-11-15T06:46:27.413Z,21.62
2023-11-15T06:56:30.223Z,21.64
2023-11-15T07:06:33.646Z,21.66
2023-11-15T07:16:35.817Z,21.70
2023-11-15T07:26:38.281Z,21.65
2023-11-15T07:36:39.996Z,21.78
2023-11-15T07:46:42.687Z,21.86
2023-11-15T07:56:46.798Z,21.85
2023-11-15T08:06:49.783Z,22.00
2023-11-15T08:16:51.788Z,21.97
2023-11-15T08:26:57.497Z,21.96
2023-11-15T08:36:59.592Z,21.94
2023-11-15T08:47:02.121Z,21.93
2023-11-15T08:57:04.789Z,21.93
2023-11-15T09:07:08.818Z,21.91
2023-11-15T09:17:17.707Z,21.91
2023-11-15T09:27:19.485Z,21.91
2023-11-15T09:37:21.480Z,21.90
2023-11-15T09:47:25.235Z,21.92
2023-11-15T09:57:27.428Z,21.92
2023-11-15T10:07:30.417Z,21.92
2023-11-15T10:17:44.414Z,21.92
2023-11-15T10:27:47.467Z,21.93
2023-11-15T10:37:53.168Z,21.94
2023-11-15T10:47:58.703Z,21.97
2023-11-15T10:58:03.658Z,21.99
2023-11-15T11:08:30.291Z,21.96
2023-11-15T11:18:32.359Z,21.98
2023-11-15T11:29:04.358Z,21.97
2023-11-15T11:39:06.775Z,21.89
2023-11-15T11:49:09.500Z,21.81
2023-11-15T11:59:14.115Z,21.91
2023-11-15T12:09:23.618Z,21.91
2023-11-15T12:19:27.977Z,21.86
2023-11-15T12:29:31.894Z,21.86
2023-11-15T12:39:38.243Z,21.89
2023-11-15T12:49:40.586Z,21.87
2023-11-15T12:59:43.597Z,21.90
2023-11-15T13:09:46.688Z,21.90
2023-11-15T13:19:49.483Z,21.85
2023-11-15T13:29:52.102Z,21.79
2023-11-15T13:39:54.173Z,21.81
2023-11-15T13:49:55.996Z,21.81
2023-11-15T13:59:59.020Z,21.79
2023-11-15T14:10:02.403Z,21.81
2023-11-15T14:20:06.292Z,21.76
2023-11-15T14:30:11.803Z,21.76
2023-11-15T14:40:17.501Z,21.77
2023-11-15T14:50:20.014Z,21.76
2023-11-15T15:00:22.127Z,21.65
2023-11-15T15:10:24.025Z,21.75
2023-11-15T15:20:26.239Z,21.73
2023-11-15T15:30:34.266Z,21.70
2023-11-15T15:40:39.834Z,21.72
2023-11-15T15:50:42.506Z,21.69
2023-11-15T16:00:44.256Z,21.67
2023-11-15T16:10:46.707Z,21.80
2023-11-15T16:20:48.983Z,21.85
2023-11-15T16:30:51.227Z,21.86
2023-11-15T16:40:55.772Z,21.84
2023-11-15T16:50:58.182Z,21.76
2023-11-15T17:01:00.495Z,21.75
2023-11-15T17:11:02.255Z,21.82
2023-11-15T17:21:04.438Z,21.83
2023-11-15T17:31:06.355Z,21.83
2023-11-15T17:41:11.809Z,21.83
2023-11-15T17:51:13.550Z,21.90
2023-11-15T18:01:15.700Z,21.91
2023-11-15T18:11:18.341Z,21.92
2023-11-15T18:21:22.513Z,21.83
2023-11-15T18:31:25.963Z,21.80
2023-11-15T18:41:29.152Z,21.77
2023-11-15T18:51:31.905Z,21.77
2023-11-15T19:01:35.524Z,21.76
2023-11-15T19:11:37.736Z,21.80
2023-11-15T19:21:40.847Z,21.85
2023-11-15T19:31:45.645Z,21.92
2023-11-15T19:41:48.612Z,21.87
2023-11-15T19:51:54.412Z,21.83
2023-11-15T20:01:56.729Z,21.77
2023-11-15T20:11:58.801Z,21.79
2023-11-15T20:22:02.016Z,21.77
2023-11-15T20:32:04.007Z,21.75
2023-11-15T20:42:07.450Z,21.68
2023-11-15T20:52:11.360Z,21.73
2023-11-15T21:02:16.004Z,21.70
2023-11-15T21:12:18.829Z,21.59
2023-11-15T21:22:25.195Z,21.67
2023-11-15T21:32:28.608Z,21.64
2023-11-15T21:42:32.003Z,21.58
2023-11-15T21:52:38.186Z,21.66
2023-11-15T22:02:39.981Z,21.66
2023-11-15T22:12:42.984Z,21.64
2023-11-15T22:22:45.980Z,21.67
2023-11-15T22:32:47.983Z,21.66
2023-11-15T22:42:50.356Z,21.64
2023-11-15T22:52:52.413Z,21.63
2023-11-15T23:02:54.787Z,21.62
2023-11-15T23:12:56.729Z,21.59
2023-11-15T23:22:58.418Z,21.58
2023-11-15T23:33:00.179Z,21.58
2023-11-15T23:43:02.285Z,21.58
2023-11-15T23:53:04.167Z,21.56
